Terminal Aerodrome Forecast
Issued by NWS

Home | Current Version | Previous Version | Text Only | Print | Product List | Glossary On
Versions: 1 2 3 4 5 6 7 8 9 10 11 12 13 14 15
000
FTUS43 KUNR 302300
TAFGCC
TAF
KGCC 302320Z 3100/3124 VRB05KT P6SM SCT250
     FM310500 18011KT P6SM SKC
     FM311600 21017G27KT P6SM SCT200=

USA.gov is the U.S. government's official web portal to all federal, state and local government web resources and services.